Terminal Aerodrome Forecast
Issued by NWS

Home | Current Version | Previous Version | Graphics & Text | Print | Product List | Glossary On
Versions: 1 2 3 4 5 6 7 8 9 10 11 12 13 14 15 16
000
FTUS43 KMPX 302300
TAFAXN
TAF
KAXN 302320Z 3100/3124 VRB03KT P6SM BKN015 BKN030
     FM310500 13007KT P6SM SCT015
     FM310900 15011KT P6SM FEW005 SCT015 BKN110
     FM311200 15015G22KT P6SM VCSH FEW020 BKN050
     FM311700 18014G21KT P6SM VCTS SCT025CB BKN070 PROB30 3118/3123
      2SM TSRA FEW015 BKN030CB OVC070=

USA.gov is the U.S. government's official web portal to all federal, state and local government web resources and services.